createdAt,value
2018-04-22T00:00:28.085Z,0.00
2018-04-22T00:01:28.043Z,0.00
2018-04-22T00:02:28.008Z,0.00
2018-04-22T00:03:27.963Z,0.00
2018-04-22T00:04:27.925Z,0.00
2018-04-22T00:05:27.880Z,0.00
2018-04-22T00:06:27.849Z,0.00
2018-04-22T00:07:27.801Z,0.00
2018-04-22T00:08:27.758Z,0.00
2018-04-22T00:09:27.719Z,0.00
2018-04-22T00:10:27.680Z,0.00
2018-04-22T00:11:27.638Z,0.00
2018-04-22T00:12:27.618Z,0.00
2018-04-22T00:13:27.555Z,0.00
2018-04-22T00:14:27.533Z,0.00
2018-04-22T00:15:27.482Z,0.00
2018-04-22T00:16:27.436Z,0.00
2018-04-22T00:17:27.393Z,0.00
2018-04-22T00:18:27.353Z,0.00
2018-04-22T00:19:27.310Z,0.00
2018-04-22T00:20:27.274Z,0.00
2018-04-22T00:21:27.229Z,0.00
2018-04-22T00:22:27.196Z,0.00
2018-04-22T00:23:27.149Z,0.00
2018-04-22T00:24:27.108Z,0.00
2018-04-22T00:25:27.065Z,0.00
2018-04-22T00:26:27.026Z,0.00
2018-04-22T00:27:26.986Z,0.00
2018-04-22T00:28:26.944Z,0.00
2018-04-22T00:29:26.903Z,0.00
2018-04-22T00:30:26.861Z,0.00
2018-04-22T00:31:26.820Z,0.00
2018-04-22T00:32:26.780Z,0.00
2018-04-22T00:33:26.741Z,0.00
2018-04-22T00:34:26.707Z,0.00
2018-04-22T00:35:26.660Z,0.00
2018-04-22T00:36:26.618Z,0.00
2018-04-22T00:37:26.579Z,0.00
2018-04-22T00:38:26.538Z,0.00
2018-04-22T00:39:26.520Z,0.00
2018-04-22T00:40:26.463Z,0.00
2018-04-22T00:41:26.413Z,0.00
2018-04-22T00:42:26.372Z,0.00
2018-04-22T00:43:26.348Z,0.00
2018-04-22T00:44:26.291Z,0.00
2018-04-22T00:45:26.249Z,0.00
2018-04-22T00:46:26.208Z,0.00
2018-04-22T00:47:26.178Z,0.00
2018-04-22T00:48:26.128Z,0.00
2018-04-22T00:49:26.090Z,0.00
2018-04-22T00:50:26.047Z,0.00
2018-04-22T00:51:26.009Z,0.00
2018-04-22T00:52:25.965Z,0.00
2018-04-22T00:53:25.927Z,0.00
2018-04-22T00:54:25.886Z,0.00
2018-04-22T00:55:25.840Z,0.00
2018-04-22T00:56:25.803Z,0.00
2018-04-22T00:57:25.765Z,0.00
2018-04-22T00:58:25.719Z,0.00
2018-04-22T00:59:25.678Z,0.00
2018-04-22T01:00:25.637Z,0.00
2018-04-22T01:01:25.600Z,0.00
2018-04-22T01:02:25.556Z,0.00
2018-04-22T01:03:25.513Z,0.00
2018-04-22T01:04:25.473Z,0.00
2018-04-22T01:05:25.433Z,0.00
2018-04-22T01:06:25.390Z,0.00
2018-04-22T01:07:25.349Z,0.00
2018-04-22T01:08:25.332Z,0.00
2018-04-22T01:09:25.267Z,0.00
2018-04-22T01:10:25.232Z,0.00
2018-04-22T01:11:25.189Z,0.00
2018-04-22T01:12:25.146Z,0.00
2018-04-22T01:13:25.104Z,0.00
2018-04-22T01:14:25.062Z,0.00
2018-04-22T01:15:25.024Z,0.00
2018-04-22T01:16:25.031Z,0.00
2018-04-22T01:17:24.940Z,0.00
2018-04-22T01:18:24.924Z,0.00
2018-04-22T01:19:24.856Z,0.00
2018-04-22T01:20:24.829Z,0.00
2018-04-22T01:21:24.777Z,0.00
2018-04-22T01:22:24.735Z,0.00
2018-04-22T01:23:24.698Z,0.00
2018-04-22T01:24:24.655Z,0.00
2018-04-22T01:25:24.614Z,0.00
2018-04-22T01:26:24.574Z,0.00
2018-04-22T01:27:24.544Z,0.00
2018-04-22T01:28:24.498Z,0.00
2018-04-22T01:29:24.449Z,0.00
2018-04-22T01:30:24.411Z,0.00
2018-04-22T01:31:24.368Z,0.00
2018-04-22T01:32:24.327Z,0.00
2018-04-22T01:33:24.290Z,0.00
2018-04-22T01:34:24.251Z,0.00
2018-04-22T01:35:24.204Z,0.00
2018-04-22T01:36:24.165Z,0.00
2018-04-22T01:37:24.123Z,0.00
2018-04-22T01:38:24.080Z,0.00
2018-04-22T01:39:24.041Z,0.00
2018-04-22T01:40:24.060Z,0.00
2018-04-22T01:41:23.956Z,0.00
2018-04-22T01:42:23.922Z,0.00
2018-04-22T01:43:23.876Z,0.00
2018-04-22T01:44:23.835Z,0.00
2018-04-22T01:45:23.803Z,0.00
2018-04-22T01:46:23.753Z,0.00
2018-04-22T01:47:23.711Z,0.00
2018-04-22T01:48:23.673Z,0.00
2018-04-22T01:49:23.629Z,0.00
2018-04-22T01:50:23.588Z,0.00
2018-04-22T01:51:23.547Z,0.00
2018-04-22T01:52:23.504Z,0.00
2018-04-22T01:53:23.463Z,0.00
2018-04-22T01:54:23.423Z,0.00
2018-04-22T01:55:23.380Z,0.00
2018-04-22T01:56:23.342Z,0.00
2018-04-22T01:57:23.301Z,0.00
2018-04-22T01:58:23.258Z,0.00
2018-04-22T01:59:23.216Z,0.00
2018-04-22T02:00:23.174Z,0.00
2018-04-22T02:01:23.131Z,0.00
2018-04-22T02:02:23.092Z,0.00
2018-04-22T02:03:23.051Z,0.00
2018-04-22T02:04:23.007Z,0.00
2018-04-22T02:05:22.966Z,0.00
2018-04-22T02:06:22.925Z,0.00
2018-04-22T02:07:22.888Z,0.00
2018-04-22T02:08:22.843Z,0.00
2018-04-22T02:09:22.802Z,0.00
2018-04-22T02:10:22.760Z,0.00
2018-04-22T02:11:22.720Z,0.00
2018-04-22T02:12:22.678Z,0.00
2018-04-22T02:13:22.636Z,0.00
2018-04-22T02:14:22.594Z,0.00
2018-04-22T02:15:22.553Z,0.00
2018-04-22T02:16:22.515Z,0.00
2018-04-22T02:17:22.469Z,0.00
2018-04-22T02:18:22.432Z,0.00
2018-04-22T02:19:22.388Z,0.00
2018-04-22T02:20:22.346Z,0.00
2018-04-22T02:21:22.305Z,0.00
2018-04-22T02:22:22.264Z,0.00
2018-04-22T02:23:22.224Z,0.00
2018-04-22T02:24:22.181Z,0.00
2018-04-22T02:25:22.139Z,0.00
2018-04-22T02:26:22.098Z,0.00
2018-04-22T02:27:22.058Z,0.00
2018-04-22T02:28:22.018Z,0.00
2018-04-22T02:29:21.976Z,0.00
2018-04-22T02:30:21.934Z,0.00
2018-04-22T02:31:21.895Z,0.00
2018-04-22T02:32:21.853Z,0.00
2018-04-22T02:33:21.810Z,0.00
2018-04-22T02:34:21.768Z,0.00
2018-04-22T02:35:21.726Z,0.00
2018-04-22T02:36:21.685Z,0.00
2018-04-22T02:37:21.647Z,0.00
2018-04-22T02:38:21.606Z,0.00
2018-04-22T02:39:21.561Z,0.00
2018-04-22T02:40:21.520Z,0.00
2018-04-22T02:41:21.477Z,0.00
2018-04-22T02:42:21.437Z,0.00
2018-04-22T02:43:21.395Z,0.00
2018-04-22T02:44:21.355Z,0.00
2018-04-22T02:45:21.313Z,0.00
2018-04-22T02:46:21.273Z,0.00
2018-04-22T02:47:21.229Z,0.00
2018-04-22T02:48:21.188Z,0.00
2018-04-22T02:49:21.146Z,0.00
2018-04-22T02:50:21.105Z,0.00
2018-04-22T02:51:21.067Z,0.00
2018-04-22T02:52:21.027Z,0.00
2018-04-22T02:53:20.982Z,0.00
2018-04-22T02:54:20.942Z,0.00
2018-04-22T02:55:20.897Z,0.00
2018-04-22T02:56:20.857Z,0.00
2018-04-22T02:57:20.816Z,0.00
2018-04-22T02:58:20.775Z,0.00
2018-04-22T02:59:20.731Z,0.00
2018-04-22T03:00:20.690Z,0.00
2018-04-22T03:01:20.650Z,0.00
2018-04-22T03:02:20.608Z,0.00
2018-04-22T03:03:20.571Z,0.00
2018-04-22T03:04:20.527Z,0.00
2018-04-22T03:05:20.483Z,0.00
2018-04-22T03:06:20.444Z,0.00
2018-04-22T03:07:20.401Z,0.00
2018-04-22T03:08:20.362Z,0.00
2018-04-22T03:09:20.315Z,0.00
2018-04-22T03:10:20.275Z,0.00
2018-04-22T03:11:20.234Z,0.00
2018-04-22T03:12:20.195Z,0.00
2018-04-22T03:13:20.151Z,0.00
2018-04-22T03:14:20.110Z,0.00
2018-04-22T03:15:20.071Z,0.00
2018-04-22T03:16:20.029Z,0.00
2018-04-22T03:17:19.982Z,0.00
2018-04-22T03:18:19.942Z,0.00
2018-04-22T03:19:19.902Z,0.00
2018-04-22T03:20:19.860Z,0.00
2018-04-22T03:21:19.819Z,0.00
2018-04-22T03:22:19.810Z,0.00
2018-04-22T03:23:19.735Z,0.00
2018-04-22T03:24:19.694Z,0.00
2018-04-22T03:25:19.656Z,0.00
2018-04-22T03:26:19.612Z,0.00
2018-04-22T03:27:19.575Z,0.00
2018-04-22T03:28:19.530Z,0.00
2018-04-22T03:29:19.485Z,0.00
2018-04-22T03:30:19.445Z,0.00
2018-04-22T03:31:19.410Z,0.00
2018-04-22T03:32:19.359Z,0.00
2018-04-22T03:33:19.319Z,0.00
2018-04-22T03:34:19.279Z,0.00
2018-04-22T03:35:19.239Z,0.00
2018-04-22T03:36:19.195Z,0.00
2018-04-22T03:37:19.152Z,0.00
2018-04-22T03:38:19.114Z,0.00
2018-04-22T03:39:19.071Z,0.00
2018-04-22T03:40:19.030Z,0.00
2018-04-22T03:41:18.985Z,0.00
2018-04-22T03:42:18.951Z,0.00
2018-04-22T03:43:18.910Z,0.00
2018-04-22T03:44:18.869Z,0.00
2018-04-22T03:45:18.820Z,0.00
2018-04-22T03:46:18.780Z,0.00
2018-04-22T03:47:18.746Z,0.00
2018-04-22T03:48:18.696Z,0.00
2018-04-22T03:49:18.659Z,0.00
2018-04-22T03:50:18.621Z,0.00
2018-04-22T03:51:18.572Z,0.00
2018-04-22T03:52:18.530Z,0.00
2018-04-22T03:53:18.494Z,0.00
2018-04-22T03:54:18.452Z,0.00
2018-04-22T03:55:18.405Z,0.00
2018-04-22T03:56:18.365Z,0.00
2018-04-22T03:57:18.321Z,4.00
2018-04-22T03:58:18.286Z,4.00
2018-04-22T03:59:18.237Z,0.00
2018-04-22T04:00:18.196Z,0.00
2018-04-22T04:01:18.156Z,4.00
2018-04-22T04:02:18.112Z,4.00
2018-04-22T04:03:18.070Z,4.00
2018-04-22T04:04:18.035Z,4.00
2018-04-22T04:05:17.987Z,4.00
2018-04-22T04:06:17.947Z,8.00
2018-04-22T04:07:17.903Z,4.00
2018-04-22T04:08:17.863Z,8.00
2018-04-22T04:09:17.822Z,8.00
2018-04-22T04:10:17.782Z,8.00
2018-04-22T04:11:17.736Z,12.00
2018-04-22T04:12:17.696Z,16.00
2018-04-22T04:13:17.657Z,16.00
2018-04-22T04:14:17.614Z,16.00
2018-04-22T04:15:17.570Z,20.00
2018-04-22T04:16:17.527Z,20.00
2018-04-22T04:17:17.486Z,24.00
2018-04-22T04:18:17.445Z,28.00
2018-04-22T04:19:17.468Z,32.00
2018-04-22T04:20:17.365Z,32.00
2018-04-22T04:21:17.322Z,40.00
2018-04-22T04:22:17.277Z,40.00
2018-04-22T04:23:17.235Z,48.00
2018-04-22T04:24:17.196Z,56.00
2018-04-22T04:25:17.154Z,60.00
2018-04-22T04:26:17.113Z,68.00
2018-04-22T04:27:17.069Z,76.00
2018-04-22T04:28:17.028Z,80.00
2018-04-22T04:29:16.984Z,84.00
2018-04-22T04:30:16.945Z,92.00
2018-04-22T04:31:16.903Z,100.00
2018-04-22T04:32:16.863Z,108.00
2018-04-22T04:33:16.819Z,112.00
2018-04-22T04:34:16.778Z,124.00
2018-04-22T04:35:16.734Z,132.00
2018-04-22T04:36:16.696Z,148.00
2018-04-22T04:37:16.657Z,160.00
2018-04-22T04:38:16.621Z,176.00
2018-04-22T04:39:16.568Z,180.00
2018-04-22T04:40:16.528Z,188.00
2018-04-22T04:41:16.483Z,196.00
2018-04-22T04:42:16.444Z,208.00
2018-04-22T04:43:16.404Z,216.00
2018-04-22T04:44:16.360Z,220.00
2018-04-22T04:45:16.314Z,232.00
2018-04-22T04:46:16.274Z,244.00
2018-04-22T04:47:16.237Z,252.00
2018-04-22T04:48:16.193Z,264.00
2018-04-22T04:49:16.151Z,276.00
2018-04-22T04:50:16.110Z,288.00
2018-04-22T04:51:16.069Z,300.00
2018-04-22T04:52:16.028Z,312.00
2018-04-22T04:53:15.979Z,324.00
2018-04-22T04:54:15.941Z,340.00
2018-04-22T04:55:15.901Z,352.00
2018-04-22T04:56:15.862Z,364.00
2018-04-22T04:57:15.816Z,376.00
2018-04-22T04:58:15.773Z,388.00
2018-04-22T04:59:15.731Z,400.00
2018-04-22T05:00:15.696Z,416.00
2018-04-22T05:01:15.652Z,428.00
2018-04-22T05:02:15.604Z,444.00
2018-04-22T05:03:15.562Z,456.00
2018-04-22T05:04:15.524Z,468.00
2018-04-22T05:05:15.478Z,484.00
2018-04-22T05:06:15.448Z,496.00
2018-04-22T05:07:15.399Z,508.00
2018-04-22T05:08:15.354Z,524.00
2018-04-22T05:09:15.317Z,540.00
2018-04-22T05:10:15.273Z,548.00
2018-04-22T05:11:15.231Z,564.00
2018-04-22T05:12:15.189Z,576.00
2018-04-22T05:13:15.148Z,588.00
2018-04-22T05:14:15.104Z,600.00
2018-04-22T05:15:15.066Z,612.00
2018-04-22T05:16:15.022Z,624.00
2018-04-22T05:17:14.981Z,632.00
2018-04-22T05:18:14.938Z,644.00
2018-04-22T05:19:14.897Z,656.00
2018-04-22T05:20:14.851Z,664.00
2018-04-22T05:21:14.820Z,676.00
2018-04-22T05:22:14.769Z,688.00
2018-04-22T05:23:14.728Z,696.00
2018-04-22T05:24:14.689Z,704.00
2018-04-22T05:25:14.644Z,716.00
2018-04-22T05:26:14.601Z,720.00
2018-04-22T05:27:14.567Z,728.00
2018-04-22T05:28:14.519Z,736.00
2018-04-22T05:29:14.480Z,748.00
2018-04-22T05:30:14.436Z,760.00
2018-04-22T05:31:14.409Z,768.00
2018-04-22T05:32:14.353Z,776.00
2018-04-22T05:33:14.309Z,788.00
2018-04-22T05:34:14.268Z,788.00
2018-04-22T05:35:14.226Z,808.00
2018-04-22T05:36:14.182Z,816.00
2018-04-22T05:37:14.143Z,828.00
2018-04-22T05:38:14.104Z,836.00
2018-04-22T05:39:14.062Z,852.00
2018-04-22T05:40:14.016Z,876.00
2018-04-22T05:41:13.975Z,900.00
2018-04-22T05:42:13.934Z,920.00
2018-04-22T05:43:13.892Z,940.00
2018-04-22T05:44:13.858Z,944.00
2018-04-22T05:45:13.808Z,936.00
2018-04-22T05:46:13.765Z,932.00
2018-04-22T05:47:13.728Z,928.00
2018-04-22T05:48:13.683Z,928.00
2018-04-22T05:49:13.641Z,936.00
2018-04-22T05:50:13.598Z,956.00
2018-04-22T05:51:13.558Z,968.00
2018-04-22T05:52:13.514Z,992.00
2018-04-22T05:53:13.476Z,1004.00
2018-04-22T05:54:13.436Z,1028.00
2018-04-22T05:55:13.395Z,1040.00
2018-04-22T05:56:13.353Z,1052.00
2018-04-22T05:57:13.306Z,1076.00
2018-04-22T05:58:13.266Z,1092.00
2018-04-22T05:59:13.225Z,1112.00
2018-04-22T06:00:13.188Z,1108.00
2018-04-22T06:01:13.142Z,1128.00
2018-04-22T06:02:13.142Z,1176.00
2018-04-22T06:03:13.057Z,1184.00
2018-04-22T06:04:13.018Z,1228.00
2018-04-22T06:05:12.976Z,1248.00
2018-04-22T06:06:12.936Z,1264.00
2018-04-22T06:07:12.897Z,1276.00
2018-04-22T06:08:12.857Z,1292.00
2018-04-22T06:09:12.811Z,1292.00
2018-04-22T06:10:12.766Z,1316.00
2018-04-22T06:11:12.730Z,1324.00
2018-04-22T06:12:12.686Z,1336.00
2018-04-22T06:13:12.641Z,1344.00
2018-04-22T06:14:12.604Z,1348.00
2018-04-22T06:15:12.560Z,1360.00
2018-04-22T06:16:12.518Z,1368.00
2018-04-22T06:17:12.490Z,1404.00
2018-04-22T06:18:12.438Z,1416.00
2018-04-22T06:19:12.398Z,1428.00
2018-04-22T06:20:12.361Z,1436.00
2018-04-22T06:21:12.310Z,1448.00
2018-04-22T06:22:12.269Z,1464.00
2018-04-22T06:23:12.228Z,1464.00
2018-04-22T06:24:12.188Z,1476.00
2018-04-22T06:25:12.148Z,1484.00
2018-04-22T06:26:12.103Z,1496.00
2018-04-22T06:27:12.067Z,1504.00
2018-04-22T06:28:12.028Z,1508.00
2018-04-22T06:29:11.978Z,1524.00
2018-04-22T06:30:11.942Z,1540.00
2018-04-22T06:31:11.896Z,1552.00
2018-04-22T06:32:11.857Z,1560.00
2018-04-22T06:33:11.823Z,1572.00
2018-04-22T06:34:11.773Z,1584.00
2018-04-22T06:35:11.738Z,1596.00
2018-04-22T06:36:11.692Z,1604.00
2018-04-22T06:37:11.648Z,1608.00
2018-04-22T06:38:11.609Z,1608.00
2018-04-22T06:39:11.568Z,1608.00
2018-04-22T06:40:11.569Z,1608.00
2018-04-22T06:41:11.486Z,1604.00
2018-04-22T06:42:11.448Z,1612.00
2018-04-22T06:43:11.407Z,1628.00
2018-04-22T06:44:11.368Z,1628.00
2018-04-22T06:45:11.324Z,1628.00
2018-04-22T06:46:11.329Z,1628.00
2018-04-22T06:47:11.240Z,1636.00
2018-04-22T06:48:11.200Z,1660.00
2018-04-22T06:49:11.161Z,1668.00
2018-04-22T06:50:11.121Z,1684.00
2018-04-22T06:51:11.078Z,1700.00
2018-04-22T06:52:11.040Z,1708.00
2018-04-22T06:53:10.996Z,1692.00
2018-04-22T06:54:10.959Z,1704.00
2018-04-22T06:55:10.914Z,1688.00
2018-04-22T06:56:10.875Z,1684.00
2018-04-22T06:57:10.834Z,1644.00
2018-04-22T06:58:10.793Z,1636.00
2018-04-22T06:59:10.751Z,1636.00
2018-04-22T07:00:10.711Z,1676.00
2018-04-22T07:01:10.671Z,1728.00
2018-04-22T07:02:10.638Z,1724.00
2018-04-22T07:03:10.589Z,1720.00
2018-04-22T07:04:10.547Z,1708.00
2018-04-22T07:05:10.506Z,1700.00
2018-04-22T07:06:10.467Z,1636.00
2018-04-22T07:07:10.427Z,1708.00
2018-04-22T07:08:10.389Z,1724.00
2018-04-22T07:09:10.346Z,1748.00
2018-04-22T07:10:10.306Z,1732.00
2018-04-22T07:11:10.267Z,1700.00
2018-04-22T07:12:10.228Z,1724.00
2018-04-22T07:13:10.184Z,1744.00
2018-04-22T07:14:10.143Z,1752.00
2018-04-22T07:15:10.104Z,1712.00
2018-04-22T07:16:10.062Z,1756.00
2018-04-22T07:17:10.023Z,1812.00
2018-04-22T07:18:09.992Z,1824.00
2018-04-22T07:19:09.953Z,1816.00
2018-04-22T07:20:09.908Z,1820.00
2018-04-22T07:21:09.867Z,1864.00
2018-04-22T07:22:09.825Z,1872.00
2018-04-22T07:23:09.787Z,1880.00
2018-04-22T07:24:09.794Z,1876.00
2018-04-22T07:25:09.704Z,1952.00
2018-04-22T07:26:09.666Z,1992.00
2018-04-22T07:27:09.630Z,1972.00
2018-04-22T07:28:09.588Z,1932.00
2018-04-22T07:29:09.541Z,2012.00
2018-04-22T07:30:09.503Z,2032.00
2018-04-22T07:31:09.462Z,2032.00
2018-04-22T07:32:09.443Z,2112.00
2018-04-22T07:33:09.382Z,2116.00
2018-04-22T07:34:09.345Z,2100.00
2018-04-22T07:35:09.308Z,2080.00
2018-04-22T07:36:09.262Z,2060.00
2018-04-22T07:37:09.222Z,2020.00
2018-04-22T07:38:09.185Z,2028.00
2018-04-22T07:39:09.148Z,2000.00
2018-04-22T07:40:09.110Z,1944.00
2018-04-22T07:41:09.070Z,1992.00
2018-04-22T07:42:09.025Z,2020.00
2018-04-22T07:43:08.992Z,2104.00
2018-04-22T07:44:08.958Z,2144.00
2018-04-22T07:45:08.906Z,2076.00
2018-04-22T07:46:08.868Z,2196.00
2018-04-22T07:47:08.829Z,2216.00
2018-04-22T07:48:08.795Z,2212.00
2018-04-22T07:49:08.750Z,2236.00
2018-04-22T07:50:08.709Z,2216.00
2018-04-22T07:51:08.675Z,2212.00
2018-04-22T07:52:08.637Z,2140.00
2018-04-22T07:53:08.592Z,2204.00
2018-04-22T07:54:08.556Z,2304.00
2018-04-22T07:55:08.513Z,2304.00
2018-04-22T07:56:08.479Z,2244.00
2018-04-22T07:57:08.436Z,2332.00
2018-04-22T07:58:08.394Z,2344.00
2018-04-22T07:59:08.357Z,2304.00
2018-04-22T08:00:10.968Z,2320.00
2018-04-22T08:01:08.277Z,2364.00
2018-04-22T08:02:08.240Z,2372.00
2018-04-22T08:03:08.198Z,2376.00
2018-04-22T08:04:08.162Z,2396.00
2018-04-22T08:05:08.124Z,2360.00
2018-04-22T08:06:08.084Z,2372.00
2018-04-22T08:07:08.046Z,2396.00
2018-04-22T08:08:08.006Z,2384.00
2018-04-22T08:09:07.966Z,2364.00
2018-04-22T08:10:07.929Z,2376.00
2018-04-22T08:11:07.890Z,2404.00
2018-04-22T08:12:07.854Z,2436.00
2018-04-22T08:13:07.811Z,2516.00
2018-04-22T08:14:07.774Z,2500.00
2018-04-22T08:15:07.736Z,2472.00
2018-04-22T08:16:07.697Z,2432.00
2018-04-22T08:17:07.657Z,2444.00
2018-04-22T08:18:07.620Z,2428.00
2018-04-22T08:19:07.583Z,2568.00
2018-04-22T08:20:07.565Z,2556.00
2018-04-22T08:21:07.505Z,2580.00
2018-04-22T08:22:07.468Z,2584.00
2018-04-22T08:23:07.437Z,2596.00
2018-04-22T08:24:07.395Z,2556.00
2018-04-22T08:25:07.353Z,2640.00
2018-04-22T08:26:07.319Z,2692.00
2018-04-22T08:27:07.291Z,2700.00
2018-04-22T08:28:07.265Z,2672.00
2018-04-22T08:29:07.207Z,2632.00
2018-04-22T08:30:07.169Z,2696.00
2018-04-22T08:31:07.127Z,2716.00
2018-04-22T08:32:07.089Z,2692.00
2018-04-22T08:33:07.056Z,2732.00
2018-04-22T08:34:07.015Z,2752.00
2018-04-22T08:35:06.979Z,2672.00
2018-04-22T08:36:06.947Z,2736.00
2018-04-22T08:37:06.899Z,2760.00
2018-04-22T08:38:06.865Z,2800.00
2018-04-22T08:39:06.829Z,2820.00
2018-04-22T08:40:06.791Z,2824.00
2018-04-22T08:41:06.748Z,2820.00
2018-04-22T08:42:06.714Z,2748.00
2018-04-22T08:43:06.676Z,2796.00
2018-04-22T08:44:06.640Z,2804.00
2018-04-22T08:45:06.600Z,2780.00
2018-04-22T08:46:06.567Z,2824.00
2018-04-22T08:47:06.525Z,2764.00
2018-04-22T08:48:06.498Z,2732.00
2018-04-22T08:49:06.455Z,2736.00
2018-04-22T08:50:06.416Z,2760.00
2018-04-22T08:51:06.386Z,2676.00
2018-04-22T08:52:06.341Z,2560.00
2018-04-22T08:53:06.308Z,2556.00
2018-04-22T08:54:06.272Z,2556.00
2018-04-22T08:55:06.238Z,2520.00
2018-04-22T08:56:06.196Z,2552.00
2018-04-22T08:57:06.161Z,2712.00
2018-04-22T08:58:06.122Z,2692.00
2018-04-22T08:59:06.085Z,2672.00
2018-04-22T09:00:06.050Z,2656.00
2018-04-22T09:01:06.033Z,2840.00
2018-04-22T09:02:06.028Z,2856.00
2018-04-22T09:03:05.944Z,2852.00
2018-04-22T09:04:05.904Z,2896.00
2018-04-22T09:05:05.865Z,2896.00
2018-04-22T09:06:05.893Z,2916.00
2018-04-22T09:07:05.797Z,2908.00
2018-04-22T09:08:05.759Z,2912.00
2018-04-22T09:09:05.729Z,2916.00
2018-04-22T09:10:05.688Z,2876.00
2018-04-22T09:11:05.651Z,2888.00
2018-04-22T09:12:05.610Z,2896.00
2018-04-22T09:13:05.576Z,2820.00
2018-04-22T09:14:05.543Z,1208.00
2018-04-22T09:15:05.504Z,1328.00
2018-04-22T09:16:05.467Z,1268.00
2018-04-22T09:17:05.432Z,1340.00
2018-04-22T09:18:05.395Z,1404.00
2018-04-22T09:19:05.364Z,1400.00
2018-04-22T09:20:05.324Z,1432.00
2018-04-22T09:21:05.290Z,1392.00
2018-04-22T09:22:05.258Z,1396.00
2018-04-22T09:23:05.215Z,1400.00
2018-04-22T09:24:05.180Z,1404.00
2018-04-22T09:25:05.149Z,1740.00
2018-04-22T09:26:05.137Z,1400.00
2018-04-22T09:27:05.074Z,1340.00
2018-04-22T09:28:05.043Z,1428.00
2018-04-22T09:29:05.003Z,1360.00
2018-04-22T09:30:04.970Z,1364.00
2018-04-22T09:31:04.932Z,1364.00
2018-04-22T09:32:04.897Z,1288.00
2018-04-22T09:33:04.878Z,1324.00
2018-04-22T09:34:04.827Z,1360.00
2018-04-22T09:35:04.793Z,1384.00
2018-04-22T09:36:04.790Z,1376.00
2018-04-22T09:37:04.720Z,1412.00
2018-04-22T09:38:04.683Z,1632.00
2018-04-22T09:39:04.655Z,1548.00
2018-04-22T09:40:04.617Z,1336.00
2018-04-22T09:41:04.581Z,1392.00
2018-04-22T09:42:04.547Z,1416.00
2018-04-22T09:43:04.516Z,1300.00
2018-04-22T09:44:04.478Z,1196.00
2018-04-22T09:45:04.448Z,1264.00
2018-04-22T09:46:04.407Z,1256.00
2018-04-22T09:47:04.373Z,1436.00
2018-04-22T09:48:04.338Z,1292.00
2018-04-22T09:49:04.307Z,1272.00
2018-04-22T09:50:04.271Z,1296.00
2018-04-22T09:51:04.235Z,1340.00
2018-04-22T09:52:04.201Z,1360.00
2018-04-22T09:53:04.165Z,1356.00
2018-04-22T09:54:04.130Z,1352.00
2018-04-22T09:55:04.098Z,1356.00
2018-04-22T09:56:04.065Z,1408.00
2018-04-22T09:57:04.032Z,1348.00
2018-04-22T09:58:03.995Z,1376.00
2018-04-22T09:59:03.962Z,1412.00
2018-04-22T10:00:03.933Z,1420.00
2018-04-22T10:01:03.892Z,1452.00
2018-04-22T10:02:03.858Z,1488.00
2018-04-22T10:03:03.827Z,1492.00
2018-04-22T10:04:03.798Z,1400.00
2018-04-22T10:05:03.764Z,1280.00
2018-04-22T10:06:03.722Z,1244.00
2018-04-22T10:07:03.689Z,1096.00
2018-04-22T10:08:03.655Z,1360.00
2018-04-22T10:09:03.623Z,1364.00
2018-04-22T10:10:03.590Z,1424.00
2018-04-22T10:11:03.557Z,1404.00
2018-04-22T10:12:03.525Z,1248.00
2018-04-22T10:13:03.495Z,1100.00
2018-04-22T10:14:03.454Z,1368.00
2018-04-22T10:15:03.421Z,1368.00
2018-04-22T10:16:03.393Z,1204.00
2018-04-22T10:17:03.357Z,1000.00
2018-04-22T10:18:03.319Z,1248.00
2018-04-22T10:19:03.287Z,1300.00
2018-04-22T10:20:03.279Z,1268.00
2018-04-22T10:21:03.219Z,1304.00
2018-04-22T10:22:03.186Z,1316.00
2018-04-22T10:23:03.158Z,1264.00
2018-04-22T10:24:03.124Z,960.00
2018-04-22T10:25:03.087Z,852.00
2018-04-22T10:26:03.064Z,836.00
2018-04-22T10:27:03.020Z,852.00
2018-04-22T10:28:02.994Z,940.00
2018-04-22T10:29:02.960Z,1024.00
2018-04-22T10:30:02.922Z,1044.00
2018-04-22T10:31:02.888Z,896.00
2018-04-22T10:32:02.856Z,984.00
2018-04-22T10:33:02.823Z,1160.00
2018-04-22T10:34:02.789Z,1216.00
2018-04-22T10:35:02.758Z,1348.00
2018-04-22T10:36:02.755Z,1368.00
2018-04-22T10:37:02.691Z,1444.00
2018-04-22T10:38:02.653Z,1444.00
2018-04-22T10:39:02.622Z,1500.00
2018-04-22T10:40:02.623Z,1492.00
2018-04-22T10:41:02.559Z,1080.00
2018-04-22T10:42:02.550Z,1396.00
2018-04-22T10:43:02.493Z,1456.00
2018-04-22T10:44:02.461Z,1396.00
2018-04-22T10:45:02.424Z,1600.00
2018-04-22T10:46:02.393Z,968.00
2018-04-22T10:47:02.361Z,1536.00
2018-04-22T10:48:02.326Z,1512.00
2018-04-22T10:49:02.301Z,1224.00
2018-04-22T10:50:02.254Z,1432.00
2018-04-22T10:51:02.226Z,1592.00
2018-04-22T10:52:02.193Z,1696.00
2018-04-22T10:53:02.159Z,1668.00
2018-04-22T10:54:02.127Z,1784.00
2018-04-22T10:55:02.090Z,1748.00
2018-04-22T10:56:02.063Z,1564.00
2018-04-22T10:57:02.023Z,1424.00
2018-04-22T10:58:02.087Z,1232.00
2018-04-22T10:59:01.960Z,1088.00
2018-04-22T11:00:01.931Z,1264.00
2018-04-22T11:01:01.896Z,1564.00
2018-04-22T11:02:01.924Z,1612.00
2018-04-22T11:03:01.833Z,1756.00
2018-04-22T11:04:01.793Z,2192.00
2018-04-22T11:05:01.769Z,2212.00
2018-04-22T11:06:01.732Z,2172.00
2018-04-22T11:07:01.698Z,1480.00
2018-04-22T11:08:01.667Z,1212.00
2018-04-22T11:09:01.631Z,1800.00
2018-04-22T11:10:01.606Z,1556.00
2018-04-22T11:11:01.566Z,988.00
2018-04-22T11:12:01.534Z,1036.00
2018-04-22T11:13:01.501Z,1540.00
2018-04-22T11:14:01.465Z,2072.00
2018-04-22T11:15:01.441Z,2020.00
2018-04-22T11:16:01.402Z,2200.00
2018-04-22T11:17:01.370Z,1432.00
2018-04-22T11:18:01.337Z,1264.00
2018-04-22T11:19:01.308Z,1228.00
2018-04-22T11:20:01.280Z,856.00
2018-04-22T11:21:01.236Z,1128.00
2018-04-22T11:22:01.274Z,1020.00
2018-04-22T11:23:01.173Z,1208.00
2018-04-22T11:24:01.140Z,3364.00
2018-04-22T11:25:01.111Z,3376.00
2018-04-22T11:26:01.083Z,860.00
2018-04-22T11:27:01.067Z,948.00
2018-04-22T11:29:00.979Z,1048.00
2018-04-22T11:30:00.948Z,1008.00
2018-04-22T11:31:00.914Z,1880.00
2018-04-22T11:32:00.882Z,1340.00
2018-04-22T11:33:00.853Z,2600.00
2018-04-22T11:34:00.817Z,3240.00
2018-04-22T11:35:00.788Z,2392.00
2018-04-22T11:36:00.756Z,3352.00
2018-04-22T11:37:00.720Z,3516.00
2018-04-22T11:38:00.688Z,3312.00
2018-04-22T11:39:00.749Z,3112.00
2018-04-22T11:40:00.626Z,2820.00
2018-04-22T11:41:00.591Z,2584.00
2018-04-22T11:42:00.624Z,2668.00
2018-04-22T11:43:00.551Z,2672.00
2018-04-22T11:44:00.496Z,2624.00
2018-04-22T11:45:00.465Z,2528.00
2018-04-22T11:46:00.456Z,2412.00
2018-04-22T11:47:00.402Z,1956.00
2018-04-22T11:48:00.374Z,1496.00
2018-04-22T11:49:00.339Z,1404.00
2018-04-22T11:50:00.316Z,1332.00
2018-04-22T11:51:00.290Z,1596.00
2018-04-22T11:52:00.255Z,1768.00
2018-04-22T11:53:00.216Z,2320.00
2018-04-22T11:54:00.195Z,2500.00
2018-04-22T11:55:00.155Z,2916.00
2018-04-22T11:56:00.125Z,2992.00
2018-04-22T11:57:00.095Z,2924.00
2018-04-22T11:58:00.068Z,1960.00
2018-04-22T11:59:00.037Z,1460.00
2018-04-22T12:00:00.059Z,1784.00
2018-04-22T12:00:59.990Z,2932.00
2018-04-22T12:01:59.955Z,2884.00
2018-04-22T12:02:59.910Z,1704.00
2018-04-22T12:03:59.885Z,1864.00
2018-04-22T12:04:59.899Z,2560.00
2018-04-22T12:05:59.855Z,2740.00
2018-04-22T12:06:59.904Z,2736.00
2018-04-22T12:07:59.760Z,2732.00
2018-04-22T12:08:59.729Z,2664.00
2018-04-22T12:09:59.701Z,2720.00
2018-04-22T12:10:59.667Z,2712.00
2018-04-22T12:11:59.651Z,1944.00
2018-04-22T12:12:59.611Z,848.00
2018-04-22T12:13:59.577Z,1312.00
2018-04-22T12:14:59.549Z,1856.00
2018-04-22T12:15:59.533Z,2496.00
2018-04-22T12:16:59.488Z,2656.00
2018-04-22T12:17:59.469Z,2548.00
2018-04-22T12:18:59.452Z,2672.00
2018-04-22T12:19:59.400Z,2564.00
2018-04-22T12:20:59.380Z,2540.00
2018-04-22T12:21:59.340Z,2232.00
2018-04-22T12:22:59.349Z,1012.00
2018-04-22T12:23:59.300Z,1832.00
2018-04-22T12:24:59.252Z,1692.00
2018-04-22T12:26:59.195Z,1268.00
2018-04-22T12:28:59.132Z,476.00
2018-04-22T12:29:59.107Z,448.00
2018-04-22T12:30:59.075Z,364.00
2018-04-22T12:31:59.044Z,360.00
2018-04-22T12:32:59.015Z,324.00
2018-04-22T12:33:58.984Z,312.00
2018-04-22T12:34:58.954Z,280.00